This is the latest recevied weather packets stored in our database for station/object N5JXS. If no packets are shown the sender has not sent any weather packets the latest 10 day(s).
| Time | Temp. | Humidity | Pressure | Rain* | Wind** | Luminosity | Snow |
|---|---|---|---|---|---|---|---|
| 1777662882 | 5° C | 61% | 1023.9 hPa | 0 mm | - | 154 W/m² | - |
| 1777662579 | 5.56° C | 59% | 1023.7 hPa | 0 mm | - | 161 W/m² | - |
| 1777662275 | 5° C | 69% | 1023.9 hPa | 0 mm | - | 191 W/m² | - |
| 1777661969 | 5° C | 63% | 1024.1 hPa | 0 mm | - | 244 W/m² | - |
| 1777661666 | 4.44° C | 63% | 1024 hPa | 0 mm | - | 269 W/m² | - |
| 1777661362 | 4.44° C | 65% | 1024.1 hPa | 0 mm | - | 289 W/m² | - |
| 1777661059 | 4.44° C | 70% | 1023.9 hPa | 0 mm | - | 300 W/m² | - |
| 1777660753 | 3.89° C | 69% | 1024.1 hPa | 0 mm | - | 307 W/m² | - |
| 1777660451 | 3.89° C | 70% | 1024 hPa | 0 mm | - | 275 W/m² | - |
| 1777660147 | 3.33° C | 75% | 1024 hPa | 0 mm | - | 265 W/m² | - |
| 1777659844 | 3.33° C | 68% | 1024.2 hPa | 0 mm | - | 238 W/m² | - |
| 1777659541 | 3.33° C | 71% | 1024.2 hPa | 0 mm | - | 217 W/m² | - |
| 1777659238 | 3.33° C | 79% | 1024.1 hPa | 1.78 mm | - | 206 W/m² | - |
| 1777658935 | 3.33° C | 78% | 1023.9 hPa | 1.78 mm | - | 205 W/m² | - |
| 1777658631 | 3.33° C | 76% | 1024.1 hPa | 0 mm | - | 191 W/m² | - |
| 1777658329 | 2.78° C | 78% | 1024.4 hPa | 0 mm | - | 170 W/m² | - |
| 1777658025 | 2.78° C | 71% | 1024.2 hPa | 0 mm | - | 147 W/m² | - |
| 1777657722 | 3.33° C | 74% | 1024.2 hPa | 0 mm | - | 144 W/m² | - |
| 1777657419 | 3.33° C | 74% | 1024.4 hPa | 0 mm | - | 167 W/m² | - |
| 1777657117 | 3.33° C | 73% | 1024.1 hPa | 1.27 mm | - | 310 W/m² | - |
| 1777656815 | 3.89° C | 62% | 1024.2 hPa | 1.27 mm | - | 257 W/m² | - |
| 1777656510 | 4.44° C | 67% | 1024.2 hPa | 1.78 mm | - | 1127 W/m² | - |
| 1777656205 | 3.33° C | 74% | 1024 hPa | 1.78 mm | - | 729 W/m² | - |
| 1777655901 | 2.78° C | 80% | 1024.4 hPa | 1.27 mm | - | 477 W/m² | - |
| 1777655601 | 2.78° C | 80% | 1024.2 hPa | 1.27 mm | - | 291 W/m² | - |
* Rain latest hour (hover to see other rain measurements)
** Current wind speed in m/s (hover to see current wind gust speed)